La Paz, Argentina
Current Conditions -  °F | °C
As of 7:00 PM on Saturday 20 Dec 2014 (Local Time) from SAME Reporting Station
Few Clouds Few Clouds  
Wind Chill: 73°   Ceiling: Unl
Heat Index: 73°   Visibility: 6mi
Dew Point: 39°   Wind: 9mph
Humidity: 29%   Direction: 110°ESE
Pressure: 29.68"   Gusts: NA
Location:  33.47°S, 67.55°W
Report Text: SAME 202200Z 11008KT 9999 FEW045CU FEW050 23/04 Q1005
Loading
Personal Weather Stations






























Interactive Weather Map New forecast layout! Learn more

10-Day Weather Forecast

Advertisements
Track Severe Weather on mobile